Roscoe, Pennsylvania
Current Conditions -  °F | °C
As of 7:53 PM on Friday 19 Dec 2014 (Local Time) from KAGC Reporting Station
Overcast Overcast  
Wind Chill: -4°   Ceiling: 2500
Heat Index: -1°   Visibility: 10mi
Dew Point: -8°   Wind: 5mph
Humidity: 61%   Direction: 310°NW
Pressure: 30.25"   Gusts: NA
Location:  40.08°N, 79.87°W
Report Text: KAGC 200053Z 31004KT 10SM OVC025 M01/M08 A3025 RMK AO2 SLP264 T10111078
Loading
Personal Weather Stations






























Interactive Weather Map New forecast layout! Learn more

10-Day Weather Forecast

Advertisements
Track Severe Weather on mobile